Alton, Maine
Current Conditions -  °F | °C
As of 5:35 AM on Thursday 18 Dec 2014 (Local Time) from KBGR Reporting Station
Light Snow Light Snow  
Wind Chill: -5°   Ceiling: 1400
Heat Index:   Visibility: 1.2mi
Dew Point: -1°   Wind: 13mph
Humidity: 92%   Direction: 350°N
Pressure: 29.58"   Gusts: NA
Location:  45.0236°N, 68.7394°W
Report Text: KBGR 181035Z 35011KT 1 1/4SM -SN BR FEW007 OVC014 00/M01 A2958 RMK AO2 P0000 T00001011
Loading
Personal Weather Stations






























Interactive Weather Map New forecast layout! Learn more

10-Day Weather Forecast

Advertisements
Track Severe Weather on mobile